createdAt,value
2018-04-11T00:00:06.865Z,93.40
2018-04-11T00:02:34.534Z,93.40
2018-04-11T00:05:02.238Z,93.70
2018-04-11T00:07:29.901Z,94.30
2018-04-11T00:09:57.594Z,94.60
2018-04-11T00:12:25.262Z,94.90
2018-04-11T00:14:52.986Z,95.20
2018-04-11T00:17:20.789Z,95.30
2018-04-11T00:19:48.457Z,95.50
2018-04-11T00:22:16.923Z,95.90
2018-04-11T00:24:44.575Z,95.90
2018-04-11T00:27:12.270Z,96.30
2018-04-11T00:29:39.935Z,95.80
2018-04-11T00:32:07.630Z,95.80
2018-04-11T00:34:36.042Z,96.10
2018-04-11T00:37:03.720Z,96.10
2018-04-11T00:39:31.387Z,96.20
2018-04-11T00:41:59.074Z,96.00
2018-04-11T00:44:26.722Z,96.30
2018-04-11T00:46:54.399Z,96.10
2018-04-11T00:49:22.845Z,96.00
2018-04-11T00:51:51.545Z,96.00
2018-04-11T00:54:19.218Z,96.50
2018-04-11T00:56:46.911Z,96.50
2018-04-11T00:59:14.555Z,96.40
2018-04-11T01:01:43.005Z,96.70
2018-04-11T01:04:10.668Z,96.70
2018-04-11T01:06:38.359Z,96.90
2018-04-11T01:09:06.796Z,96.80
2018-04-11T01:11:34.484Z,96.80
2018-04-11T01:14:02.146Z,97.00
2018-04-11T01:16:29.837Z,97.20
2018-04-11T01:18:57.497Z,97.70
2018-04-11T01:21:25.218Z,97.70
2018-04-11T01:23:52.895Z,97.50
2018-04-11T01:26:21.565Z,98.30
2018-04-11T01:28:49.217Z,97.90
2018-04-11T01:31:16.887Z,98.00
2018-04-11T01:33:44.535Z,98.10
2018-04-11T01:36:12.192Z,98.30
2018-04-11T01:38:39.863Z,98.40
2018-04-11T01:41:07.504Z,98.20
2018-04-11T01:43:35.190Z,98.50
2018-04-11T01:46:02.858Z,98.90
2018-04-11T01:48:30.544Z,99.10
2018-04-11T01:50:58.967Z,99.10
2018-04-11T01:53:26.645Z,99.10
2018-04-11T01:55:54.314Z,99.30
2018-04-11T01:58:22.008Z,99.30
2018-04-11T02:00:51.678Z,99.80
2018-04-11T02:03:19.366Z,99.80
2018-04-11T02:05:47.032Z,99.80
2018-04-11T02:08:15.491Z,99.90
2018-04-11T02:10:43.153Z,99.90
2018-04-11T02:13:10.832Z,99.90
2018-04-11T02:15:38.518Z,99.90
2018-04-11T02:18:06.226Z,99.90
2018-04-11T02:20:33.881Z,99.90
2018-04-11T02:23:01.568Z,99.90
2018-04-11T02:25:29.232Z,99.90
2018-04-11T02:27:56.913Z,99.90
2018-04-11T02:30:25.352Z,99.90
2018-04-11T02:32:53.030Z,99.90
2018-04-11T02:35:21.591Z,99.90
2018-04-11T02:37:49.272Z,99.90
2018-04-11T02:40:16.919Z,99.90
2018-04-11T02:42:44.608Z,99.90
2018-04-11T02:45:13.024Z,99.90
2018-04-11T02:47:40.725Z,99.90
2018-04-11T02:50:08.385Z,99.90
2018-04-11T02:52:36.073Z,99.90
2018-04-11T02:55:04.502Z,99.90
2018-04-11T02:57:32.193Z,99.90
2018-04-11T02:59:59.897Z,99.90
2018-04-11T03:02:27.577Z,99.90
2018-04-11T03:04:55.811Z,99.90
2018-04-11T03:07:24.235Z,99.90
2018-04-11T03:09:53.234Z,99.90
2018-04-11T03:12:20.899Z,99.90
2018-04-11T03:14:48.600Z,99.90
2018-04-11T03:17:16.251Z,99.90
2018-04-11T03:19:43.933Z,99.90
2018-04-11T03:22:12.358Z,99.90
2018-04-11T03:24:40.050Z,99.90
2018-04-11T03:27:07.722Z,99.90
2018-04-11T03:29:35.409Z,99.90
2018-04-11T03:32:03.847Z,99.90
2018-04-11T03:34:31.560Z,99.90
2018-04-11T03:36:59.230Z,99.90
2018-04-11T03:39:26.934Z,99.90
2018-04-11T03:41:54.591Z,99.90
2018-04-11T03:44:22.283Z,99.90
2018-04-11T03:46:50.554Z,99.90
2018-04-11T03:49:18.254Z,99.90
2018-04-11T03:51:45.919Z,99.90
2018-04-11T03:54:13.615Z,99.90
2018-04-11T03:56:41.286Z,99.90
2018-04-11T03:59:08.964Z,99.90
2018-04-11T04:01:36.680Z,99.90
2018-04-11T04:04:04.355Z,99.90
2018-04-11T04:06:32.022Z,99.90
2018-04-11T04:08:59.710Z,99.90
2018-04-11T04:11:27.371Z,99.90
2018-04-11T04:14:06.867Z,99.90
2018-04-11T04:16:46.406Z,99.90
2018-04-11T04:19:36.622Z,99.90
2018-04-11T04:22:04.289Z,99.90
2018-04-11T04:24:33.602Z,99.90
2018-04-11T04:27:01.279Z,99.90
2018-04-11T04:29:29.724Z,99.90
2018-04-11T04:31:57.384Z,99.90
2018-04-11T04:34:25.075Z,99.90
2018-04-11T04:36:53.501Z,99.90
2018-04-11T04:39:22.409Z,99.90
2018-04-11T04:41:51.318Z,99.90
2018-04-11T04:44:18.980Z,99.90
2018-04-11T04:46:46.652Z,99.90
2018-04-11T04:49:14.317Z,99.90
2018-04-11T04:51:42.822Z,99.90
2018-04-11T04:54:10.474Z,99.90
2018-04-11T04:56:38.924Z,99.90
2018-04-11T04:59:06.592Z,99.90
2018-04-11T05:01:34.302Z,99.90
2018-04-11T05:04:01.956Z,99.90
2018-04-11T05:06:29.644Z,99.90
2018-04-11T05:08:57.301Z,99.90
2018-04-11T05:11:24.975Z,99.90
2018-04-11T05:13:52.639Z,99.90
2018-04-11T05:16:20.319Z,99.90
2018-04-11T05:18:47.994Z,99.90
2018-04-11T05:21:16.446Z,99.90
2018-04-11T05:23:44.875Z,99.90
2018-04-11T05:26:12.592Z,99.90
2018-04-11T05:28:40.242Z,99.90
2018-04-11T05:31:07.949Z,99.90
2018-04-11T05:33:36.382Z,99.90
2018-04-11T05:36:04.059Z,99.90
2018-04-11T05:38:31.724Z,99.90
2018-04-11T05:40:59.423Z,99.90
2018-04-11T05:43:27.083Z,99.90
2018-04-11T05:45:54.765Z,99.90
2018-04-11T05:48:22.433Z,99.90
2018-04-11T05:50:51.160Z,99.90
2018-04-11T05:53:18.811Z,99.90
2018-04-11T05:55:46.503Z,99.90
2018-04-11T05:58:14.929Z,99.90
2018-04-11T06:00:42.624Z,99.90
2018-04-11T06:03:10.297Z,99.90
2018-04-11T06:05:38.749Z,99.90
2018-04-11T06:08:06.414Z,99.90
2018-04-11T06:10:34.093Z,99.90
2018-04-11T06:13:01.767Z,99.90
2018-04-11T06:15:30.256Z,99.90
2018-04-11T06:17:58.689Z,99.90
2018-04-11T06:20:26.355Z,99.90
2018-04-11T06:22:54.050Z,99.90
2018-04-11T06:25:22.481Z,99.90
2018-04-11T06:27:51.115Z,99.90
2018-04-11T06:30:20.234Z,99.90
2018-04-11T06:32:47.922Z,99.90
2018-04-11T06:35:15.584Z,99.90
2018-04-11T06:37:43.264Z,99.90
2018-04-11T06:40:10.912Z,99.90
2018-04-11T06:42:38.618Z,99.90
2018-04-11T06:45:07.055Z,99.90
2018-04-11T06:47:34.746Z,99.90
2018-04-11T06:50:02.414Z,99.90
2018-04-11T06:52:30.861Z,99.90
2018-04-11T06:54:58.521Z,99.90
2018-04-11T06:57:26.207Z,99.90
2018-04-11T06:59:53.878Z,99.90
2018-04-11T07:02:22.348Z,99.90
2018-04-11T07:04:50.625Z,99.90
2018-04-11T07:07:18.314Z,99.90
2018-04-11T07:09:45.977Z,99.90
2018-04-11T07:12:13.648Z,99.90
2018-04-11T07:14:41.314Z,99.90
2018-04-11T07:17:09.008Z,99.90
2018-04-11T07:19:36.656Z,99.90
2018-04-11T07:22:04.348Z,99.90
2018-04-11T07:24:32.015Z,99.90
2018-04-11T07:26:59.713Z,99.90
2018-04-11T07:29:27.378Z,99.90
2018-04-11T07:31:55.069Z,99.90
2018-04-11T07:34:22.742Z,99.90
2018-04-11T07:36:51.212Z,99.90
2018-04-11T07:39:18.882Z,99.90
2018-04-11T07:41:46.569Z,99.90
2018-04-11T07:44:14.234Z,99.90
2018-04-11T07:46:41.905Z,99.90
2018-04-11T07:49:10.361Z,99.90
2018-04-11T07:51:38.030Z,99.90
2018-04-11T07:54:05.716Z,99.90
2018-04-11T07:56:34.137Z,99.90
2018-04-11T07:59:01.808Z,99.90
2018-04-11T08:01:29.474Z,99.70
2018-04-11T08:03:57.170Z,99.70
2018-04-11T08:06:25.619Z,99.90
2018-04-11T08:08:53.326Z,99.90
2018-04-11T08:11:20.995Z,99.90
2018-04-11T08:13:48.686Z,99.30
2018-04-11T08:16:16.374Z,99.30
2018-04-11T08:18:44.082Z,99.20
2018-04-11T08:21:11.758Z,99.90
2018-04-11T08:23:38.958Z,99.90
2018-04-11T08:26:06.648Z,98.90
2018-04-11T08:28:35.111Z,98.80
2018-04-11T08:31:03.547Z,98.30
2018-04-11T08:33:31.246Z,98.30
2018-04-11T08:35:58.909Z,98.80
2018-04-11T08:38:27.370Z,97.20
2018-04-11T08:40:55.042Z,97.10
2018-04-11T08:43:22.745Z,97.30
2018-04-11T08:45:51.274Z,96.90
2018-04-11T08:48:18.966Z,97.10
2018-04-11T08:50:47.398Z,98.20
2018-04-11T08:53:15.079Z,98.20
2018-04-11T08:55:42.749Z,96.80
2018-04-11T08:58:10.437Z,96.10
2018-04-11T09:00:38.870Z,96.30
2018-04-11T09:03:06.561Z,96.30
2018-04-11T09:05:34.226Z,96.50
2018-04-11T09:08:01.997Z,95.90
2018-04-11T09:10:30.426Z,95.20
2018-04-11T09:12:58.087Z,95.20
2018-04-11T09:15:25.769Z,95.20
2018-04-11T09:17:53.451Z,95.70
2018-04-11T09:20:22.917Z,95.10
2018-04-11T09:22:51.719Z,95.10
2018-04-11T09:25:19.411Z,94.70
2018-04-11T09:27:47.827Z,94.00
2018-04-11T09:30:15.515Z,93.60
2018-04-11T09:32:43.175Z,94.60
2018-04-11T09:35:10.880Z,94.70
2018-04-11T09:37:39.310Z,94.00
2018-04-11T09:40:06.995Z,94.00
2018-04-11T09:42:34.662Z,94.00
2018-04-11T09:45:02.361Z,93.40
2018-04-11T09:47:30.015Z,93.10
2018-04-11T09:49:57.707Z,93.20
2018-04-11T09:52:25.360Z,93.10
2018-04-11T09:54:53.814Z,94.00
2018-04-11T09:57:22.240Z,91.50
2018-04-11T09:59:50.312Z,91.60
2018-04-11T10:02:23.983Z,91.40
2018-04-11T10:04:52.761Z,91.60
2018-04-11T10:07:21.187Z,92.50
2018-04-11T10:09:48.870Z,92.30
2018-04-11T10:12:16.529Z,92.10
2018-04-11T10:14:44.222Z,91.90
2018-04-11T10:17:12.659Z,91.50
2018-04-11T10:19:40.368Z,91.50
2018-04-11T10:22:08.024Z,90.60
2018-04-11T10:24:36.459Z,90.40
2018-04-11T10:27:04.117Z,90.50
2018-04-11T10:29:31.809Z,89.20
2018-04-11T10:31:59.488Z,88.40
2018-04-11T10:34:27.945Z,87.70
2018-04-11T10:36:55.621Z,87.70
2018-04-11T10:39:24.079Z,85.90
2018-04-11T10:41:52.954Z,85.80
2018-04-11T10:44:21.349Z,84.80
2018-04-11T10:46:49.010Z,88.50
2018-04-11T10:49:16.661Z,89.00
2018-04-11T10:51:44.361Z,91.80
2018-04-11T10:54:12.796Z,85.50
2018-04-11T10:56:40.491Z,85.40
2018-04-11T10:59:08.915Z,87.30
2018-04-11T11:01:36.618Z,87.20
2018-04-11T11:04:04.301Z,85.60
2018-04-11T11:06:32.745Z,79.50
2018-04-11T11:09:00.400Z,79.40
2018-04-11T11:11:28.096Z,78.70
2018-04-11T11:13:56.542Z,83.50
2018-04-11T11:16:24.268Z,83.50
2018-04-11T11:18:52.448Z,86.10
2018-04-11T11:21:21.047Z,81.80
2018-04-11T11:23:48.726Z,81.30
2018-04-11T11:26:16.422Z,82.70
2018-04-11T11:28:44.843Z,82.50
2018-04-11T11:31:12.545Z,82.70
2018-04-11T11:33:40.222Z,82.80
2018-04-11T11:36:08.681Z,80.30
2018-04-11T11:38:36.346Z,80.30
2018-04-11T11:41:04.039Z,81.30
2018-04-11T11:43:31.721Z,81.50
2018-04-11T11:45:59.463Z,82.70
2018-04-11T11:48:27.871Z,81.70
2018-04-11T11:50:55.559Z,81.60
2018-04-11T11:53:23.229Z,83.30
2018-04-11T11:55:51.942Z,82.20
2018-04-11T11:58:21.429Z,83.80
2018-04-11T12:00:49.106Z,83.80
2018-04-11T12:03:17.552Z,85.90
2018-04-11T12:05:45.213Z,85.90
2018-04-11T12:08:12.891Z,86.50
2018-04-11T12:10:40.558Z,89.60
2018-04-11T12:13:08.251Z,89.00
2018-04-11T12:15:35.917Z,89.60
2018-04-11T12:18:03.609Z,89.70
2018-04-11T12:20:31.275Z,90.00
2018-04-11T12:22:58.966Z,90.90
2018-04-11T12:25:26.634Z,91.40
2018-04-11T12:27:54.316Z,90.50
2018-04-11T12:30:23.311Z,90.80
2018-04-11T12:32:51.005Z,90.00
2018-04-11T12:35:18.669Z,90.10
2018-04-11T12:37:46.359Z,91.00
2018-04-11T12:40:14.034Z,90.90
2018-04-11T12:42:42.496Z,91.10
2018-04-11T12:45:10.162Z,91.10
2018-04-11T12:47:37.840Z,89.50
2018-04-11T12:50:05.507Z,88.40
2018-04-11T12:52:33.968Z,90.50
2018-04-11T12:55:01.652Z,90.50
2018-04-11T12:57:30.119Z,91.30
2018-04-11T12:59:57.793Z,91.20
2018-04-11T13:02:26.256Z,88.90
2018-04-11T13:04:53.932Z,88.90
2018-04-11T13:07:22.395Z,88.40
2018-04-11T13:09:50.059Z,88.50
2018-04-11T13:12:17.744Z,90.50
2018-04-11T13:14:45.405Z,90.40
2018-04-11T13:17:13.837Z,89.60
2018-04-11T13:19:42.297Z,89.90
2018-04-11T13:22:09.979Z,89.90
2018-04-11T13:24:37.672Z,90.50
2018-04-11T13:27:05.337Z,91.30
2018-04-11T13:29:33.793Z,91.30
2018-04-11T13:32:01.477Z,91.30
2018-04-11T13:34:29.929Z,92.40
2018-04-11T13:36:58.200Z,92.40
2018-04-11T13:39:25.898Z,91.40
2018-04-11T13:41:54.312Z,90.90
2018-04-11T13:44:23.236Z,90.80
2018-04-11T13:46:52.403Z,90.80
2018-04-11T13:49:20.091Z,90.70
2018-04-11T13:51:47.744Z,90.70
2018-04-11T13:54:15.415Z,91.90
2018-04-11T13:56:43.088Z,91.70
2018-04-11T13:59:10.777Z,91.80
2018-04-11T14:01:39.219Z,89.70
2018-04-11T14:04:06.896Z,89.50
2018-04-11T14:06:34.568Z,90.10
2018-04-11T14:09:02.261Z,88.90
2018-04-11T14:11:29.939Z,90.10
2018-04-11T14:13:57.607Z,87.50
2018-04-11T14:16:25.290Z,87.20
2018-04-11T14:18:52.995Z,88.20
2018-04-11T14:21:22.608Z,86.60
2018-04-11T14:23:51.256Z,86.50
2018-04-11T14:26:18.941Z,87.10
2018-04-11T14:28:47.409Z,88.20
2018-04-11T14:31:15.078Z,88.10
2018-04-11T14:33:43.559Z,87.50
2018-04-11T14:36:12.005Z,88.90
2018-04-11T14:38:39.671Z,88.90
2018-04-11T14:41:07.357Z,87.70
2018-04-11T14:43:35.046Z,87.90
2018-04-11T14:46:02.742Z,87.70
2018-04-11T14:48:30.402Z,84.10
2018-04-11T14:50:58.090Z,85.80
2018-04-11T14:53:25.751Z,83.70
2018-04-11T14:55:53.434Z,84.90
2018-04-11T14:58:23.095Z,84.60
2018-04-11T15:00:51.687Z,84.60
2018-04-11T15:03:19.351Z,84.50
2018-04-11T15:05:47.048Z,85.80
2018-04-11T15:08:15.478Z,88.20
2018-04-11T15:10:43.176Z,87.40
2018-04-11T15:13:10.856Z,89.40
2018-04-11T15:15:39.325Z,90.40
2018-04-11T15:18:06.993Z,90.40
2018-04-11T15:20:35.444Z,91.30
2018-04-11T15:23:03.101Z,91.30
2018-04-11T15:25:30.794Z,91.80
2018-04-11T15:27:59.222Z,91.90
2018-04-11T15:30:26.909Z,91.90
2018-04-11T15:32:54.570Z,91.50
2018-04-11T15:35:22.254Z,91.40
2018-04-11T15:37:50.500Z,92.00
2018-04-11T15:40:18.174Z,92.80
2018-04-11T15:42:45.838Z,92.60
2018-04-11T15:45:13.515Z,92.70
2018-04-11T15:47:41.950Z,93.20
2018-04-11T15:50:09.657Z,93.20
2018-04-11T15:52:37.328Z,93.20
2018-04-11T15:55:05.757Z,93.60
2018-04-11T15:57:33.446Z,93.50
2018-04-11T16:00:01.111Z,92.90
2018-04-11T16:02:28.798Z,92.30
2018-04-11T16:04:57.230Z,91.80
2018-04-11T16:07:24.925Z,91.80
2018-04-11T16:09:52.590Z,92.20
2018-04-11T16:12:21.031Z,93.40
2018-04-11T16:14:48.695Z,93.40
2018-04-11T16:17:16.384Z,93.80
2018-04-11T16:19:44.050Z,95.70
2018-04-11T16:22:11.730Z,97.40
2018-04-11T16:24:39.398Z,98.00
2018-04-11T16:27:07.106Z,98.90
2018-04-11T16:29:34.751Z,99.90
2018-04-11T16:32:02.448Z,99.90
2018-04-11T16:34:30.118Z,99.90
2018-04-11T16:36:58.371Z,99.90
2018-04-11T16:39:26.041Z,99.70
2018-04-11T16:41:53.740Z,99.70
2018-04-11T16:44:22.632Z,99.90
2018-04-11T16:46:51.498Z,99.10
2018-04-11T16:49:20.559Z,98.50
2018-04-11T16:51:48.282Z,98.50
2018-04-11T16:54:15.945Z,98.40
2018-04-11T16:56:43.667Z,98.30
2018-04-11T16:59:11.330Z,97.80
2018-04-11T17:01:39.041Z,97.80
2018-04-11T17:04:06.714Z,97.50
2018-04-11T17:06:34.438Z,98.10
2018-04-11T17:09:02.879Z,98.90
2018-04-11T17:11:30.548Z,98.90
2018-04-11T17:13:58.237Z,98.40
2018-04-11T17:16:26.657Z,98.90
2018-04-11T17:18:54.344Z,98.90
2018-04-11T17:21:34.007Z,99.50
2018-04-11T17:24:14.389Z,99.30
2018-04-11T17:26:53.907Z,99.50
2018-04-11T17:29:33.311Z,99.90
2018-04-11T17:32:00.989Z,99.70
2018-04-11T17:34:28.676Z,99.90
2018-04-11T17:36:57.128Z,99.90
2018-04-11T17:39:24.816Z,99.90
2018-04-11T17:41:52.467Z,99.90
2018-04-11T17:44:20.199Z,99.90
2018-04-11T17:46:47.889Z,99.90
2018-04-11T17:49:15.610Z,99.90
2018-04-11T17:51:43.277Z,99.90
2018-04-11T17:54:10.970Z,99.90
2018-04-11T17:56:38.635Z,99.90
2018-04-11T17:59:06.348Z,99.90
2018-04-11T18:01:34.786Z,99.90
2018-04-11T18:04:02.480Z,99.90
2018-04-11T18:06:30.145Z,99.90
2018-04-11T18:08:57.834Z,99.90
2018-04-11T18:11:25.495Z,99.90
2018-04-11T18:13:53.209Z,99.90
2018-04-11T18:16:22.705Z,99.90
2018-04-11T18:18:51.168Z,99.90
2018-04-11T18:21:18.839Z,99.90
2018-04-11T18:23:46.523Z,99.90
2018-04-11T18:26:14.965Z,99.90
2018-04-11T18:28:42.639Z,99.90
2018-04-11T18:31:10.304Z,99.90
2018-04-11T18:33:37.986Z,99.90
2018-04-11T18:36:05.672Z,99.90
2018-04-11T18:38:33.354Z,99.90
2018-04-11T18:41:01.038Z,99.90
2018-04-11T18:43:28.701Z,99.90
2018-04-11T18:45:56.402Z,99.90
2018-04-11T18:48:24.071Z,99.90
2018-04-11T18:50:52.914Z,99.90
2018-04-11T18:53:21.383Z,99.90
2018-04-11T18:55:49.072Z,99.90
2018-04-11T18:58:17.509Z,99.90
2018-04-11T19:00:45.213Z,99.90
2018-04-11T19:03:13.015Z,99.90
2018-04-11T19:05:40.713Z,99.90
2018-04-11T19:08:08.382Z,99.90
2018-04-11T19:10:36.070Z,99.90
2018-04-11T19:13:03.774Z,99.90
2018-04-11T19:15:31.480Z,99.90
2018-04-11T19:17:59.163Z,99.90
2018-04-11T19:20:27.629Z,99.90
2018-04-11T19:22:56.071Z,99.90
2018-04-11T19:25:23.773Z,99.90
2018-04-11T19:27:52.207Z,99.90
2018-04-11T19:30:20.698Z,99.90
2018-04-11T19:32:48.365Z,99.90
2018-04-11T19:35:16.080Z,99.90
2018-04-11T19:37:43.766Z,99.90
2018-04-11T19:40:11.432Z,99.90
2018-04-11T19:42:39.153Z,99.90
2018-04-11T19:45:07.582Z,99.90
2018-04-11T19:47:35.264Z,99.90
2018-04-11T19:50:02.977Z,99.90
2018-04-11T19:52:30.670Z,99.90
2018-04-11T19:54:58.339Z,99.90
2018-04-11T19:57:26.088Z,99.90
2018-04-11T19:59:53.752Z,99.90
2018-04-11T20:02:22.742Z,99.90
2018-04-11T20:04:51.501Z,99.90
2018-04-11T20:07:20.735Z,99.90
2018-04-11T20:09:48.405Z,99.90
2018-04-11T20:12:16.098Z,99.90
2018-04-11T20:14:44.530Z,99.90
2018-04-11T20:17:12.281Z,99.90
2018-04-11T20:19:39.970Z,99.90
2018-04-11T20:22:07.745Z,99.90
2018-04-11T20:24:35.509Z,99.90
2018-04-11T20:27:03.206Z,99.90
2018-04-11T20:29:30.973Z,99.90
2018-04-11T20:31:58.723Z,99.90
2018-04-11T20:34:27.182Z,99.90
2018-04-11T20:36:54.941Z,99.90
2018-04-11T20:39:22.675Z,99.90
2018-04-11T20:41:51.706Z,99.90
2018-04-11T20:44:19.414Z,99.90
2018-04-11T20:46:47.905Z,99.90
2018-04-11T20:49:15.603Z,99.90
2018-04-11T20:51:43.297Z,99.90
2018-04-11T20:54:11.067Z,99.90
2018-04-11T20:56:38.753Z,99.90
2018-04-11T20:59:06.499Z,99.90
2018-04-11T21:01:34.182Z,99.90
2018-04-11T21:04:01.878Z,99.90
2018-04-11T21:06:29.594Z,99.90
2018-04-11T21:08:57.294Z,99.90
2018-04-11T21:11:24.985Z,99.90
2018-04-11T21:13:53.447Z,99.90
2018-04-11T21:16:21.140Z,99.90
2018-04-11T21:18:49.604Z,99.90
2018-04-11T21:21:18.053Z,99.90
2018-04-11T21:23:45.759Z,99.90
2018-04-11T21:26:14.196Z,99.90
2018-04-11T21:28:41.892Z,99.90
2018-04-11T21:31:10.356Z,99.90
2018-04-11T21:33:38.054Z,99.90
2018-04-11T21:36:05.719Z,99.90
2018-04-11T21:38:33.383Z,99.90
2018-04-11T21:41:01.065Z,99.90
2018-04-11T21:43:28.747Z,99.90
2018-04-11T21:45:56.442Z,99.90
2018-04-11T21:48:24.866Z,99.90
2018-04-11T21:50:52.551Z,99.90
2018-04-11T21:53:20.227Z,99.90
2018-04-11T21:55:47.921Z,99.90
2018-04-11T21:58:15.593Z,99.90
2018-04-11T22:00:43.292Z,99.90
2018-04-11T22:03:10.976Z,99.90
2018-04-11T22:05:38.651Z,99.90
2018-04-11T22:08:06.316Z,99.90
2018-04-11T22:10:34.791Z,99.90
2018-04-11T22:13:03.233Z,99.90
2018-04-11T22:15:30.957Z,99.90
2018-04-11T22:17:58.607Z,99.90
2018-04-11T22:20:27.081Z,99.90
2018-04-11T22:22:55.559Z,99.90
2018-04-11T22:25:24.054Z,99.90
2018-04-11T22:27:52.494Z,99.90
2018-04-11T22:30:20.658Z,99.90
2018-04-11T22:32:48.332Z,99.90
2018-04-11T22:35:16.025Z,99.90
2018-04-11T22:37:44.464Z,99.90
2018-04-11T22:40:12.158Z,99.90
2018-04-11T22:42:40.576Z,99.90
2018-04-11T22:45:08.270Z,99.90
2018-04-11T22:47:35.962Z,99.90
2018-04-11T22:50:04.454Z,99.90
2018-04-11T22:52:32.881Z,99.90
2018-04-11T22:55:00.598Z,99.90
2018-04-11T22:57:28.282Z,99.90
2018-04-11T22:59:55.975Z,99.90
2018-04-11T23:02:23.674Z,99.90
2018-04-11T23:04:52.793Z,99.90
2018-04-11T23:07:21.572Z,99.90
2018-04-11T23:09:49.246Z,99.90
2018-04-11T23:12:16.962Z,99.90
2018-04-11T23:14:44.642Z,99.90
2018-04-11T23:17:13.100Z,99.90
2018-04-11T23:19:40.832Z,99.90
2018-04-11T23:22:08.522Z,99.90
2018-04-11T23:24:36.201Z,99.90
2018-04-11T23:27:03.943Z,99.90
2018-04-11T23:29:31.620Z,99.90
2018-04-11T23:31:59.314Z,99.90
2018-04-11T23:34:27.001Z,99.90
2018-04-11T23:36:54.700Z,99.90
2018-04-11T23:39:22.402Z,99.90
2018-04-11T23:41:50.619Z,99.90
2018-04-11T23:44:18.330Z,99.90
2018-04-11T23:46:46.778Z,99.90
2018-04-11T23:49:14.460Z,99.90
2018-04-11T23:51:42.913Z,99.90
2018-04-11T23:54:10.673Z,99.90
2018-04-11T23:56:39.107Z,99.90
2018-04-11T23:59:06.829Z,99.90
